createdAt,value
2023-04-30T00:01:10.512Z,16.87
2023-04-30T00:03:37.372Z,16.86
2023-04-30T00:06:04.052Z,16.81
2023-04-30T00:08:30.641Z,16.82
2023-04-30T00:10:57.364Z,16.72
2023-04-30T00:13:23.961Z,16.69
2023-04-30T00:15:51.360Z,16.64
2023-04-30T00:18:18.056Z,16.55
2023-04-30T00:20:44.634Z,16.48
2023-04-30T00:23:11.190Z,16.47
2023-04-30T00:25:37.726Z,16.37
2023-04-30T00:28:04.464Z,16.26
2023-04-30T00:30:55.914Z,16.06
2023-04-30T00:33:35.200Z,15.89
2023-04-30T00:36:01.846Z,15.73
2023-04-30T00:38:28.414Z,15.60
2023-04-30T00:40:55.049Z,15.46
2023-04-30T00:43:21.586Z,15.31
2023-04-30T00:45:48.152Z,15.28
2023-04-30T00:51:04.907Z,15.01
2023-04-30T00:53:32.362Z,14.95
2023-04-30T00:55:59.648Z,14.92
2023-04-30T00:58:26.335Z,14.87
2023-04-30T01:00:53.409Z,14.78
2023-04-30T01:03:20.493Z,14.66
2023-04-30T01:06:11.676Z,14.76
2023-04-30T01:08:53.836Z,14.88
2023-04-30T01:11:33.204Z,14.90
2023-04-30T01:14:10.545Z,14.66
2023-04-30T01:16:43.952Z,14.75
2023-04-30T01:19:36.785Z,14.62
2023-04-30T01:22:04.915Z,14.52
2023-04-30T01:25:08.447Z,14.48
2023-04-30T01:27:58.133Z,14.50
2023-04-30T01:30:26.009Z,14.38
2023-04-30T01:32:52.577Z,14.29
2023-04-30T01:35:19.179Z,14.44
2023-04-30T01:38:00.693Z,14.33
2023-04-30T01:40:46.628Z,14.20
2023-04-30T01:43:18.800Z,14.27
2023-04-30T01:46:07.334Z,14.13
2023-04-30T01:49:22.814Z,14.09
2023-04-30T01:51:57.425Z,14.03
2023-04-30T01:54:29.227Z,14.00
2023-04-30T01:57:05.092Z,13.93
2023-04-30T01:59:34.707Z,13.90
2023-04-30T02:02:02.160Z,13.95
2023-04-30T02:04:34.064Z,13.92
2023-04-30T02:07:01.183Z,13.82
2023-04-30T02:09:27.792Z,13.80
2023-04-30T02:11:54.319Z,13.78
2023-04-30T02:17:51.289Z,13.95
2023-04-30T02:20:22.702Z,14.07
2023-04-30T02:22:49.309Z,14.13
2023-04-30T02:25:16.051Z,14.06
2023-04-30T02:27:42.602Z,14.16
2023-04-30T02:30:09.374Z,14.07
2023-04-30T02:32:36.135Z,13.85
2023-04-30T02:35:02.743Z,13.87
2023-04-30T02:37:29.326Z,13.82
2023-04-30T02:39:56.230Z,13.86
2023-04-30T02:42:23.056Z,14.16
2023-04-30T02:44:49.653Z,14.31
2023-04-30T02:47:16.269Z,14.34
2023-04-30T02:50:42.796Z,14.38
2023-04-30T02:53:31.338Z,14.28
2023-04-30T02:55:59.194Z,14.33
2023-04-30T02:58:26.651Z,14.31
2023-04-30T03:00:53.283Z,14.40
2023-04-30T03:03:20.042Z,14.31
2023-04-30T03:05:46.714Z,14.34
2023-04-30T03:10:48.504Z,14.27
2023-04-30T03:13:15.070Z,14.41
2023-04-30T03:15:41.602Z,14.32
2023-04-30T03:18:27.182Z,14.42
2023-04-30T03:21:20.730Z,14.27
2023-04-30T03:24:09.207Z,14.16
2023-04-30T03:26:35.975Z,14.26
2023-04-30T03:29:02.638Z,14.26
2023-04-30T03:31:29.259Z,14.22
2023-04-30T03:33:56.113Z,14.22
2023-04-30T03:36:22.787Z,14.13
2023-04-30T03:38:49.388Z,13.91
2023-04-30T03:41:16.024Z,13.98
2023-04-30T03:43:42.614Z,13.70
2023-04-30T03:46:09.243Z,13.63
2023-04-30T03:48:35.969Z,13.70
2023-04-30T03:51:02.661Z,13.71
2023-04-30T03:54:16.068Z,13.89
2023-04-30T03:56:46.372Z,13.66
2023-04-30T03:59:18.213Z,13.64
2023-04-30T04:01:44.884Z,13.68
2023-04-30T04:04:11.795Z,13.84
2023-04-30T04:06:38.382Z,13.48
2023-04-30T04:09:05.109Z,13.56
2023-04-30T04:11:31.896Z,13.51
2023-04-30T04:16:47.279Z,13.98
2023-04-30T04:19:14.294Z,14.01
2023-04-30T04:21:40.896Z,14.05
2023-04-30T04:24:08.786Z,13.85
2023-04-30T04:26:36.510Z,13.95
2023-04-30T04:29:34.622Z,14.05
2023-04-30T04:32:19.623Z,13.65
2023-04-30T04:34:46.207Z,13.59
2023-04-30T04:37:12.788Z,13.63
2023-04-30T04:39:39.335Z,13.70
2023-04-30T04:42:05.878Z,13.50
2023-04-30T04:44:32.459Z,13.58
2023-04-30T04:49:34.276Z,13.71
2023-04-30T04:52:02.016Z,13.77
2023-04-30T04:54:34.741Z,13.94
2023-04-30T04:57:01.459Z,14.16
2023-04-30T04:59:28.014Z,14.00
2023-04-30T05:02:06.562Z,13.78
2023-04-30T05:04:58.160Z,14.03
2023-04-30T05:07:52.442Z,14.22
2023-04-30T05:10:19.083Z,14.32
2023-04-30T05:12:45.750Z,14.28
2023-04-30T05:15:12.338Z,14.31
2023-04-30T05:17:38.954Z,14.38
2023-04-30T05:20:07.444Z,14.42
2023-04-30T05:22:49.158Z,14.32
2023-04-30T05:25:15.890Z,14.17
2023-04-30T05:27:42.488Z,14.14
2023-04-30T05:30:09.948Z,14.35
2023-04-30T05:33:01.504Z,14.32
2023-04-30T05:36:02.318Z,14.28
2023-04-30T05:38:29.004Z,14.28
2023-04-30T05:40:55.597Z,14.03
2023-04-30T05:43:22.159Z,14.12
2023-04-30T05:45:49.004Z,13.93
2023-04-30T05:48:15.659Z,14.06
2023-04-30T05:50:42.500Z,14.17
2023-04-30T05:53:09.103Z,14.20
2023-04-30T05:55:36.361Z,14.16
2023-04-30T05:58:03.002Z,14.27
2023-04-30T06:00:29.565Z,14.40
2023-04-30T06:02:56.317Z,14.44
2023-04-30T06:05:23.077Z,14.50
2023-04-30T06:07:49.679Z,14.39
2023-04-30T06:10:16.280Z,14.69
2023-04-30T06:12:42.846Z,14.81
2023-04-30T06:15:09.758Z,14.86
2023-04-30T06:17:36.439Z,14.90
2023-04-30T06:20:06.998Z,15.25
2023-04-30T06:26:15.365Z,15.02
2023-04-30T06:28:41.940Z,15.42
2023-04-30T06:31:08.758Z,15.40
2023-04-30T06:33:35.363Z,15.57
2023-04-30T06:36:14.002Z,15.45
2023-04-30T06:38:41.671Z,15.93
2023-04-30T06:41:08.626Z,16.02
2023-04-30T06:43:35.371Z,16.51
2023-04-30T06:46:02.082Z,16.36
2023-04-30T06:48:28.663Z,16.34
2023-04-30T06:50:55.381Z,16.74
2023-04-30T06:53:21.986Z,16.53
2023-04-30T06:55:48.867Z,17.25
2023-04-30T06:58:15.456Z,17.82
2023-04-30T07:00:42.945Z,18.19
2023-04-30T07:03:09.763Z,18.15
2023-04-30T07:05:36.558Z,18.29
2023-04-30T07:08:04.044Z,18.26
2023-04-30T07:10:31.721Z,18.38
2023-04-30T07:12:59.268Z,18.56
2023-04-30T07:15:26.089Z,18.73
2023-04-30T07:17:53.033Z,18.87
2023-04-30T07:20:19.692Z,18.78
2023-04-30T07:22:46.541Z,18.52
2023-04-30T07:25:13.970Z,18.66
2023-04-30T07:27:41.012Z,18.30
2023-04-30T07:30:11.688Z,18.05
2023-04-30T07:32:41.043Z,18.00
2023-04-30T07:35:08.009Z,17.83
2023-04-30T07:37:36.048Z,17.97
2023-04-30T07:40:04.171Z,18.29
2023-04-30T07:42:30.736Z,18.27
2023-04-30T07:45:04.848Z,18.22
2023-04-30T07:47:31.429Z,18.65
2023-04-30T07:49:58.492Z,18.36
2023-04-30T07:52:25.085Z,18.36
2023-04-30T07:54:51.898Z,18.50
2023-04-30T07:57:19.225Z,18.64
2023-04-30T07:59:45.866Z,18.76
2023-04-30T08:02:12.573Z,18.87
2023-04-30T08:04:39.195Z,18.77
2023-04-30T08:07:05.896Z,18.81
2023-04-30T08:09:32.761Z,18.91
2023-04-30T08:11:59.390Z,19.00
2023-04-30T08:14:26.006Z,18.66
2023-04-30T08:16:52.956Z,18.80
2023-04-30T08:19:19.569Z,18.99
2023-04-30T08:24:21.438Z,18.84
2023-04-30T08:26:48.212Z,18.76
2023-04-30T08:29:14.754Z,18.50
2023-04-30T08:31:41.496Z,18.57
2023-04-30T08:34:08.139Z,18.58
2023-04-30T08:37:02.569Z,18.74
2023-04-30T08:43:08.785Z,19.14
2023-04-30T08:45:41.348Z,19.35
2023-04-30T08:48:15.211Z,19.60
2023-04-30T08:50:41.912Z,19.68
2023-04-30T08:53:11.087Z,19.61
2023-04-30T08:55:39.761Z,20.09
2023-04-30T08:58:08.364Z,19.96
2023-04-30T09:00:38.087Z,20.15
2023-04-30T09:03:05.786Z,20.40
2023-04-30T09:05:32.469Z,20.38
2023-04-30T09:08:03.676Z,20.62
2023-04-30T09:10:34.751Z,20.70
2023-04-30T09:13:09.295Z,20.44
2023-04-30T09:15:38.737Z,20.24
2023-04-30T09:18:19.998Z,20.39
2023-04-30T09:21:03.329Z,20.62
2023-04-30T09:23:30.779Z,20.93
2023-04-30T09:25:57.594Z,20.97
2023-04-30T09:28:26.522Z,20.99
2023-04-30T09:30:53.520Z,20.79
2023-04-30T09:33:20.511Z,20.94
2023-04-30T09:35:47.224Z,21.01
2023-04-30T09:38:28.172Z,21.40
2023-04-30T09:40:55.093Z,21.32
2023-04-30T09:43:21.737Z,21.33
2023-04-30T09:45:52.424Z,20.72
2023-04-30T09:48:24.564Z,20.86
2023-04-30T09:50:54.979Z,21.25
2023-04-30T09:53:24.287Z,20.98
2023-04-30T09:55:51.660Z,21.00
2023-04-30T09:58:19.703Z,20.95
2023-04-30T10:00:49.449Z,20.70
2023-04-30T10:03:16.900Z,20.80
2023-04-30T10:05:48.672Z,21.05
2023-04-30T10:08:21.451Z,21.48
2023-04-30T10:10:51.485Z,21.29
2023-04-30T10:13:21.882Z,21.43
2023-04-30T10:15:54.428Z,21.28
2023-04-30T10:18:31.298Z,21.38
2023-04-30T10:21:02.610Z,21.45
2023-04-30T10:23:30.450Z,21.12
2023-04-30T10:28:39.094Z,21.35
2023-04-30T10:31:07.246Z,20.97
2023-04-30T10:33:52.262Z,21.05
2023-04-30T10:36:33.894Z,21.01
2023-04-30T10:39:01.619Z,21.28
2023-04-30T10:42:18.236Z,21.19
2023-04-30T10:45:12.811Z,21.21
2023-04-30T10:47:46.190Z,21.05
2023-04-30T10:50:13.516Z,20.98
2023-04-30T10:52:40.196Z,21.05
2023-04-30T10:55:08.826Z,21.25
2023-04-30T10:57:43.835Z,21.27
2023-04-30T11:00:10.546Z,20.89
2023-04-30T11:02:44.822Z,21.10
2023-04-30T11:05:14.432Z,21.31
2023-04-30T11:07:49.193Z,21.19
2023-04-30T11:10:16.570Z,21.38
2023-04-30T11:12:51.270Z,21.71
2023-04-30T11:15:20.222Z,21.68
2023-04-30T11:17:49.497Z,22.06
2023-04-30T11:20:22.969Z,21.92
2023-04-30T11:23:14.249Z,22.06
2023-04-30T11:25:46.571Z,22.03
2023-04-30T11:28:34.729Z,21.65
2023-04-30T11:31:02.154Z,21.77
2023-04-30T11:33:44.249Z,22.02
2023-04-30T11:36:10.805Z,21.49
2023-04-30T11:38:40.780Z,21.22
2023-04-30T11:41:23.368Z,21.52
2023-04-30T11:43:49.953Z,21.55
2023-04-30T11:46:35.084Z,21.41
2023-04-30T11:49:01.841Z,21.36
2023-04-30T11:51:28.656Z,21.10
2023-04-30T11:53:55.395Z,21.16
2023-04-30T11:56:24.130Z,21.43
2023-04-30T11:58:52.765Z,21.62
2023-04-30T12:01:21.026Z,21.72
2023-04-30T12:03:49.947Z,21.62
2023-04-30T12:06:28.017Z,22.11
2023-04-30T12:08:56.815Z,21.91
2023-04-30T12:11:27.642Z,21.89
2023-04-30T12:13:55.872Z,21.62
2023-04-30T12:16:25.268Z,21.56
2023-04-30T12:18:52.845Z,21.97
2023-04-30T12:21:21.703Z,22.19
2023-04-30T12:23:48.378Z,21.88
2023-04-30T12:26:15.098Z,21.85
2023-04-30T12:28:41.718Z,22.07
2023-04-30T12:31:08.707Z,21.97
2023-04-30T12:33:37.254Z,21.57
2023-04-30T12:36:04.160Z,21.69
2023-04-30T12:38:30.753Z,21.71
2023-04-30T12:40:57.606Z,21.86
2023-04-30T12:43:24.173Z,21.97
2023-04-30T12:48:44.190Z,22.21
2023-04-30T12:51:11.478Z,22.07
2023-04-30T12:53:47.340Z,21.94
2023-04-30T12:56:16.483Z,22.65
2023-04-30T12:58:49.837Z,22.84
2023-04-30T13:02:14.281Z,22.99
2023-04-30T13:05:16.195Z,22.50
2023-04-30T13:07:42.836Z,22.20
2023-04-30T13:10:09.784Z,22.42
2023-04-30T13:12:36.423Z,21.92
2023-04-30T13:15:03.985Z,21.82
2023-04-30T13:17:30.582Z,22.02
2023-04-30T13:19:57.564Z,22.00
2023-04-30T13:22:29.467Z,22.09
2023-04-30T13:24:56.021Z,22.19
2023-04-30T13:27:22.586Z,21.89
2023-04-30T13:29:49.209Z,22.17
2023-04-30T13:32:17.088Z,22.03
2023-04-30T13:34:43.775Z,21.71
2023-04-30T13:37:10.744Z,22.29
2023-04-30T13:39:37.267Z,22.53
2023-04-30T13:42:04.544Z,22.62
2023-04-30T13:44:33.858Z,22.69
2023-04-30T13:47:00.632Z,22.18
2023-04-30T13:49:27.327Z,22.00
2023-04-30T13:52:40.697Z,22.75
2023-04-30T13:55:52.740Z,22.38
2023-04-30T13:58:19.473Z,22.37
2023-04-30T14:00:46.299Z,22.02
2023-04-30T14:03:14.169Z,21.97
2023-04-30T14:05:40.910Z,21.51
2023-04-30T14:08:07.463Z,21.76
2023-04-30T14:10:34.029Z,21.70
2023-04-30T14:13:00.735Z,22.04
2023-04-30T14:15:30.596Z,21.90
2023-04-30T14:17:57.263Z,21.80
2023-04-30T14:20:24.916Z,22.03
2023-04-30T14:22:51.542Z,22.26
2023-04-30T14:25:18.243Z,21.83
2023-04-30T14:27:44.816Z,22.08
2023-04-30T14:30:11.986Z,22.47
2023-04-30T14:32:38.628Z,22.21
2023-04-30T14:35:05.981Z,22.16
2023-04-30T14:37:32.762Z,22.59
2023-04-30T14:40:00.420Z,22.92
2023-04-30T14:42:26.998Z,22.78
2023-04-30T14:44:53.541Z,22.50
2023-04-30T14:47:21.627Z,22.61
2023-04-30T14:49:50.263Z,22.70
2023-04-30T14:52:16.840Z,22.82
2023-04-30T14:54:43.495Z,22.26
2023-04-30T14:57:10.151Z,22.65
2023-04-30T14:59:38.846Z,22.83
2023-04-30T15:02:05.870Z,22.36
2023-04-30T15:04:32.484Z,22.07
2023-04-30T15:06:59.033Z,22.20
2023-04-30T15:09:25.609Z,22.05
2023-04-30T15:11:52.242Z,22.27
2023-04-30T15:14:18.876Z,22.27
2023-04-30T15:16:45.690Z,22.10
2023-04-30T15:19:12.360Z,22.09
2023-04-30T15:21:39.115Z,22.24
2023-04-30T15:24:06.370Z,22.21
2023-04-30T15:26:33.070Z,21.43
2023-04-30T15:28:59.918Z,21.65
2023-04-30T15:31:26.922Z,21.71
2023-04-30T15:33:53.596Z,21.33
2023-04-30T15:36:23.287Z,20.77
2023-04-30T15:38:49.868Z,20.58
2023-04-30T15:41:16.423Z,20.49
2023-04-30T15:43:42.986Z,20.10
2023-04-30T15:46:09.686Z,19.41
2023-04-30T15:48:36.296Z,19.45
2023-04-30T15:51:03.220Z,19.26
2023-04-30T15:53:29.829Z,19.48
2023-04-30T15:55:57.374Z,19.88
2023-04-30T15:58:23.949Z,19.63
2023-04-30T16:00:50.498Z,19.80
2023-04-30T16:03:17.223Z,19.41
2023-04-30T16:05:43.976Z,19.87
2023-04-30T16:08:10.811Z,19.82
2023-04-30T16:10:38.714Z,19.64
2023-04-30T16:13:05.471Z,19.61
2023-04-30T16:15:32.448Z,19.71
2023-04-30T16:17:59.164Z,19.78
2023-04-30T16:20:27.354Z,19.74
2023-04-30T16:22:54.871Z,19.10
2023-04-30T16:25:22.226Z,18.95
2023-04-30T16:27:49.746Z,18.44
2023-04-30T16:30:16.474Z,18.39
2023-04-30T16:32:43.129Z,17.74
2023-04-30T16:35:10.213Z,18.03
2023-04-30T16:37:36.767Z,18.11
2023-04-30T16:40:03.602Z,18.04
2023-04-30T16:42:30.888Z,17.36
2023-04-30T16:44:57.479Z,17.70
2023-04-30T16:47:24.117Z,17.45
2023-04-30T16:49:50.748Z,17.45
2023-04-30T16:52:17.389Z,17.35
2023-04-30T16:54:44.198Z,17.66
2023-04-30T16:57:11.062Z,18.05
2023-04-30T16:59:37.630Z,18.04
2023-04-30T17:02:04.830Z,18.22
2023-04-30T17:04:31.684Z,18.31
2023-04-30T17:06:59.197Z,18.51
2023-04-30T17:09:32.302Z,18.58
2023-04-30T17:11:58.874Z,18.55
2023-04-30T17:14:25.451Z,18.77
2023-04-30T17:16:52.457Z,18.74
2023-04-30T17:19:19.096Z,18.60
2023-04-30T17:21:45.860Z,18.74
2023-04-30T17:24:12.591Z,18.70
2023-04-30T17:26:39.231Z,18.82
2023-04-30T17:29:06.283Z,18.80
2023-04-30T17:31:33.244Z,18.80
2023-04-30T17:34:03.206Z,18.92
2023-04-30T17:36:30.360Z,18.99
2023-04-30T17:38:59.616Z,19.01
2023-04-30T17:41:26.413Z,19.08
2023-04-30T17:43:52.976Z,18.99
2023-04-30T17:46:19.635Z,19.03
2023-04-30T17:48:47.083Z,19.03
2023-04-30T17:51:13.714Z,19.06
2023-04-30T17:53:40.761Z,19.06
2023-04-30T17:56:08.741Z,19.08
2023-04-30T17:58:36.589Z,19.08
2023-04-30T18:01:05.588Z,19.10
2023-04-30T18:03:32.602Z,19.13
2023-04-30T18:05:59.344Z,19.10
2023-04-30T18:08:26.331Z,19.04
2023-04-30T18:10:53.178Z,19.05
2023-04-30T18:13:19.733Z,18.99
2023-04-30T18:18:21.657Z,18.92
2023-04-30T18:20:49.681Z,18.93
2023-04-30T18:23:16.611Z,18.88
2023-04-30T18:25:43.678Z,18.83
2023-04-30T18:33:41.666Z,18.74
2023-04-30T18:36:09.073Z,18.71
2023-04-30T18:38:35.625Z,18.65
2023-04-30T18:41:02.407Z,18.63
2023-04-30T18:43:28.985Z,18.57
2023-04-30T18:45:55.578Z,18.47
2023-04-30T18:48:23.046Z,18.44
2023-04-30T18:50:50.157Z,18.43
2023-04-30T18:53:17.386Z,18.43
2023-04-30T18:55:46.996Z,18.40
2023-04-30T18:58:13.800Z,18.39
2023-04-30T19:00:43.521Z,18.42
2023-04-30T19:03:10.398Z,18.39
2023-04-30T19:05:37.548Z,18.35
2023-04-30T19:08:04.331Z,18.33
2023-04-30T19:10:30.934Z,18.38
2023-04-30T19:12:57.482Z,18.32
2023-04-30T19:15:25.621Z,18.28
2023-04-30T19:17:52.271Z,18.20
2023-04-30T19:20:19.044Z,17.88
2023-04-30T19:22:45.653Z,17.78
2023-04-30T19:25:12.439Z,17.76
2023-04-30T19:27:39.176Z,17.58
2023-04-30T19:30:06.855Z,17.52
2023-04-30T19:32:33.473Z,17.58
2023-04-30T19:35:00.147Z,17.53
2023-04-30T19:37:26.856Z,17.36
2023-04-30T19:39:53.595Z,17.17
2023-04-30T19:42:20.423Z,17.18
2023-04-30T19:44:47.106Z,17.05
2023-04-30T19:47:13.788Z,16.72
2023-04-30T19:49:40.417Z,16.60
2023-04-30T19:52:08.031Z,16.50
2023-04-30T19:54:34.694Z,16.56
2023-04-30T19:57:02.129Z,16.75
2023-04-30T19:59:28.733Z,16.45
2023-04-30T20:01:55.378Z,16.07
2023-04-30T20:04:22.441Z,16.03
2023-04-30T20:06:56.001Z,15.91
2023-04-30T20:09:23.261Z,15.94
2023-04-30T20:11:51.607Z,15.98
2023-04-30T20:14:18.909Z,16.07
2023-04-30T20:16:46.470Z,15.96
2023-04-30T20:19:14.109Z,15.74
2023-04-30T20:21:40.698Z,15.70
2023-04-30T20:24:07.446Z,15.74
2023-04-30T20:26:34.525Z,15.70
2023-04-30T20:29:01.148Z,15.74
2023-04-30T20:31:31.269Z,15.61
2023-04-30T20:33:57.948Z,15.85
2023-04-30T20:36:24.696Z,16.01
2023-04-30T20:38:54.280Z,15.70
2023-04-30T20:41:39.487Z,15.67
2023-04-30T20:44:06.057Z,15.84
2023-04-30T20:46:33.340Z,15.85
2023-04-30T20:49:04.284Z,15.97
2023-04-30T20:51:31.258Z,15.86
2023-04-30T20:53:57.832Z,15.86
2023-04-30T20:56:24.474Z,15.78
2023-04-30T20:58:51.058Z,15.49
2023-04-30T21:01:17.646Z,15.34
2023-04-30T21:03:44.280Z,15.29
2023-04-30T21:06:11.383Z,15.27
2023-04-30T21:08:38.037Z,15.32
2023-04-30T21:11:04.614Z,15.25
2023-04-30T21:13:31.173Z,15.06
2023-04-30T21:15:57.999Z,15.14
2023-04-30T21:18:27.078Z,15.10
2023-04-30T21:20:53.821Z,15.09
2023-04-30T21:23:20.396Z,14.78
2023-04-30T21:28:35.706Z,14.90
2023-04-30T21:31:09.172Z,14.87
2023-04-30T21:33:37.388Z,15.00
2023-04-30T21:36:05.036Z,14.73
2023-04-30T21:38:31.780Z,14.89
2023-04-30T21:41:58.236Z,14.95
2023-04-30T21:44:50.481Z,15.04
2023-04-30T21:47:17.612Z,15.14
2023-04-30T21:49:44.218Z,15.14
2023-04-30T21:52:11.678Z,15.17
2023-04-30T21:54:38.308Z,15.34
2023-04-30T21:57:04.981Z,15.29
2023-04-30T22:02:20.019Z,15.40
2023-04-30T22:04:49.766Z,15.52
2023-04-30T22:07:16.376Z,15.50
2023-04-30T22:09:44.952Z,15.55
2023-04-30T22:12:12.161Z,15.50
2023-04-30T22:15:10.023Z,15.41
2023-04-30T22:18:15.998Z,15.27
2023-04-30T22:20:49.749Z,15.34
2023-04-30T22:23:17.349Z,15.31
2023-04-30T22:25:43.987Z,15.38
2023-04-30T22:28:10.642Z,15.46
2023-04-30T22:30:38.344Z,15.53
2023-04-30T22:33:05.470Z,15.48
2023-04-30T22:35:35.670Z,15.46
2023-04-30T22:38:03.504Z,15.49
2023-04-30T22:40:33.046Z,15.48
2023-04-30T22:43:00.693Z,15.30
2023-04-30T22:45:29.976Z,15.51
2023-04-30T22:47:59.406Z,15.38
2023-04-30T22:50:27.437Z,15.47
2023-04-30T22:52:56.251Z,15.47
2023-04-30T22:55:23.261Z,15.40
2023-04-30T22:57:49.809Z,15.37
2023-04-30T23:00:18.207Z,15.38
2023-04-30T23:02:44.789Z,15.17
2023-04-30T23:05:51.582Z,14.99
2023-04-30T23:08:46.153Z,15.07
2023-04-30T23:11:12.813Z,15.00
2023-04-30T23:13:39.415Z,15.08
2023-04-30T23:16:09.096Z,15.05
2023-04-30T23:18:38.980Z,14.92
2023-04-30T23:21:06.143Z,14.73
2023-04-30T23:23:51.174Z,14.78
2023-04-30T23:26:17.815Z,14.74
2023-04-30T23:28:44.398Z,14.66
2023-04-30T23:31:10.961Z,14.45
2023-04-30T23:33:37.707Z,14.42
2023-04-30T23:36:28.390Z,14.41
2023-04-30T23:39:13.508Z,14.41
2023-04-30T23:41:40.112Z,14.45
2023-04-30T23:44:06.768Z,14.51
2023-04-30T23:46:33.372Z,14.50
2023-04-30T23:49:00.059Z,14.25
2023-04-30T23:51:26.644Z,14.31
2023-04-30T23:56:41.683Z,14.47
2023-04-30T23:59:08.288Z,14.31
